createdAt,value
2018-12-09T00:00:33.567Z,0.50
2018-12-09T00:01:36.099Z,0.40
2018-12-09T00:02:38.551Z,0.50
2018-12-09T00:03:40.975Z,0.50
2018-12-09T00:04:43.415Z,0.47
2018-12-09T00:05:45.859Z,0.67
2018-12-09T00:06:48.728Z,0.60
2018-12-09T00:07:51.174Z,0.50
2018-12-09T00:08:53.618Z,0.50
2018-12-09T00:09:56.051Z,0.50
2018-12-09T00:10:58.523Z,0.60
2018-12-09T00:12:01.169Z,0.50
2018-12-09T00:13:03.606Z,0.40
2018-12-09T00:14:06.035Z,0.40
2018-12-09T00:15:08.617Z,0.50
2018-12-09T00:16:11.086Z,0.53
2018-12-09T00:17:13.515Z,0.50
2018-12-09T00:18:15.946Z,0.40
2018-12-09T00:19:18.390Z,0.47
2018-12-09T00:20:20.818Z,0.40
2018-12-09T00:21:23.348Z,0.43
2018-12-09T00:22:25.815Z,0.40
2018-12-09T00:23:28.276Z,0.47
2018-12-09T00:24:30.722Z,0.50
2018-12-09T00:25:33.168Z,0.40
2018-12-09T00:26:35.619Z,0.50
2018-12-09T00:27:38.134Z,0.40
2018-12-09T00:28:40.642Z,0.60
2018-12-09T00:29:43.108Z,0.40
2018-12-09T00:30:45.543Z,0.60
2018-12-09T00:31:48.000Z,0.40
2018-12-09T00:32:50.465Z,0.40
2018-12-09T00:33:55.910Z,0.40
2018-12-09T00:34:58.384Z,0.50
2018-12-09T00:36:01.051Z,0.40
2018-12-09T00:37:03.587Z,0.40
2018-12-09T00:38:06.099Z,0.40
2018-12-09T00:39:08.531Z,0.50
2018-12-09T00:40:10.969Z,0.50
2018-12-09T00:41:13.508Z,0.50
2018-12-09T00:42:15.986Z,0.60
2018-12-09T00:43:18.449Z,0.40
2018-12-09T00:44:20.895Z,0.53
2018-12-09T00:45:23.336Z,0.40
2018-12-09T00:46:25.771Z,0.40
2018-12-09T00:47:28.258Z,0.40
2018-12-09T00:48:30.707Z,0.60
2018-12-09T00:49:33.156Z,0.53
2018-12-09T00:50:35.593Z,0.50
2018-12-09T00:51:38.036Z,0.47
2018-12-09T00:52:40.470Z,0.47
2018-12-09T00:53:43.005Z,0.40
2018-12-09T00:54:45.474Z,0.50
2018-12-09T00:55:47.899Z,0.40
2018-12-09T00:56:50.335Z,0.50
2018-12-09T00:57:52.821Z,0.50
2018-12-09T00:58:55.346Z,0.50
2018-12-09T00:59:57.785Z,0.50
2018-12-09T01:01:00.272Z,0.40
2018-12-09T01:02:04.705Z,0.40
2018-12-09T01:03:07.161Z,0.40
2018-12-09T01:04:09.620Z,0.53
2018-12-09T01:05:12.232Z,0.50
2018-12-09T01:06:14.662Z,0.70
2018-12-09T01:07:17.115Z,0.60
2018-12-09T01:08:19.591Z,1.03
2018-12-09T01:09:22.043Z,0.70
2018-12-09T01:10:24.485Z,0.60
2018-12-09T01:11:27.002Z,0.47
2018-12-09T01:12:29.447Z,0.50
2018-12-09T01:13:31.914Z,0.40
2018-12-09T01:14:34.372Z,0.40
2018-12-09T01:15:36.821Z,0.50
2018-12-09T01:16:39.277Z,0.40
2018-12-09T01:17:41.800Z,0.40
2018-12-09T01:18:44.254Z,0.47
2018-12-09T01:19:46.699Z,0.50
2018-12-09T01:20:49.228Z,0.43
2018-12-09T01:21:51.655Z,0.40
2018-12-09T01:22:54.084Z,0.50
2018-12-09T01:23:56.528Z,0.50
2018-12-09T01:24:58.998Z,0.50
2018-12-09T01:26:01.438Z,0.40
2018-12-09T01:27:03.891Z,0.53
2018-12-09T01:28:06.355Z,0.50
2018-12-09T01:29:08.824Z,0.50
2018-12-09T01:30:11.282Z,0.40
2018-12-09T01:31:13.727Z,0.40
2018-12-09T01:32:16.272Z,0.40
2018-12-09T01:33:18.718Z,0.50
2018-12-09T01:34:21.280Z,0.40
2018-12-09T01:35:23.775Z,0.50
2018-12-09T01:36:26.207Z,0.40
2018-12-09T01:37:28.670Z,0.40
2018-12-09T01:38:31.107Z,0.40
2018-12-09T01:39:33.683Z,0.50
2018-12-09T01:40:41.965Z,0.60
2018-12-09T01:41:44.829Z,0.47
2018-12-09T01:42:47.301Z,0.47
2018-12-09T01:43:49.742Z,0.40
2018-12-09T01:44:52.193Z,0.50
2018-12-09T01:45:54.647Z,0.47
2018-12-09T01:46:57.092Z,0.50
2018-12-09T01:47:59.527Z,0.53
2018-12-09T01:49:01.959Z,0.50
2018-12-09T01:50:05.797Z,0.47
2018-12-09T01:51:08.340Z,0.50
2018-12-09T01:52:10.778Z,0.53
2018-12-09T01:53:25.191Z,0.43
2018-12-09T01:54:27.623Z,0.50
2018-12-09T01:55:30.080Z,0.40
2018-12-09T01:56:32.541Z,0.50
2018-12-09T01:57:34.979Z,0.50
2018-12-09T01:58:37.519Z,0.50
2018-12-09T01:59:39.970Z,0.40
2018-12-09T02:00:42.511Z,0.50
2018-12-09T02:01:45.460Z,0.53
2018-12-09T02:02:47.896Z,0.60
2018-12-09T02:03:50.340Z,0.55
2018-12-09T02:04:52.783Z,0.50
2018-12-09T02:05:56.336Z,0.50
2018-12-09T02:06:58.785Z,0.57
2018-12-09T02:08:01.229Z,0.65
2018-12-09T02:09:05.644Z,0.40
2018-12-09T02:10:08.173Z,0.50
2018-12-09T02:11:10.638Z,0.50
2018-12-09T02:12:13.084Z,0.40
2018-12-09T02:13:15.561Z,0.60
2018-12-09T02:14:18.000Z,0.40
2018-12-09T02:15:20.439Z,0.40
2018-12-09T02:16:23.000Z,0.50
2018-12-09T02:17:25.628Z,0.40
2018-12-09T02:18:28.479Z,0.40
2018-12-09T02:19:30.920Z,0.40
2018-12-09T02:20:33.379Z,0.40
2018-12-09T02:21:35.844Z,0.40
2018-12-09T02:22:38.311Z,0.50
2018-12-09T02:23:40.803Z,0.40
2018-12-09T02:24:43.246Z,0.40
2018-12-09T02:25:45.720Z,0.60
2018-12-09T02:26:48.178Z,0.40
2018-12-09T02:27:50.623Z,0.40
2018-12-09T02:28:53.059Z,0.45
2018-12-09T02:29:55.515Z,0.40
2018-12-09T02:30:58.155Z,0.57
2018-12-09T02:32:00.619Z,0.40
2018-12-09T02:33:03.090Z,0.45
2018-12-09T02:34:05.965Z,0.50
2018-12-09T02:35:08.813Z,0.47
2018-12-09T02:36:11.328Z,0.40
2018-12-09T02:37:13.796Z,0.50
2018-12-09T02:38:16.271Z,0.60
2018-12-09T02:39:18.817Z,0.50
2018-12-09T02:40:21.264Z,0.60
2018-12-09T02:41:23.726Z,0.40
2018-12-09T02:42:26.288Z,0.45
2018-12-09T02:43:28.741Z,0.40
2018-12-09T02:44:31.187Z,0.40
2018-12-09T02:45:34.123Z,0.50
2018-12-09T02:46:36.556Z,0.40
2018-12-09T02:47:39.013Z,0.40
2018-12-09T02:48:41.449Z,0.50
2018-12-09T02:49:43.888Z,0.40
2018-12-09T02:50:46.551Z,0.40
2018-12-09T02:51:49.416Z,0.40
2018-12-09T02:52:51.889Z,0.42
2018-12-09T02:53:54.423Z,0.40
2018-12-09T02:54:56.967Z,0.40
2018-12-09T02:55:59.528Z,0.42
2018-12-09T02:57:01.968Z,0.40
2018-12-09T02:58:04.544Z,0.40
2018-12-09T02:59:07.021Z,0.40
2018-12-09T03:00:09.546Z,0.50
2018-12-09T03:01:12.065Z,0.40
2018-12-09T03:02:14.502Z,0.40
2018-12-09T03:03:16.979Z,0.45
2018-12-09T03:04:19.447Z,0.40
2018-12-09T03:05:21.900Z,0.40
2018-12-09T03:06:24.335Z,0.40
2018-12-09T03:07:27.190Z,0.40
2018-12-09T03:08:29.704Z,0.47
2018-12-09T03:09:32.147Z,0.40
2018-12-09T03:10:34.577Z,0.47
2018-12-09T03:11:37.119Z,0.40
2018-12-09T03:12:41.418Z,0.40
2018-12-09T03:13:44.032Z,0.40
2018-12-09T03:14:46.486Z,0.45
2018-12-09T03:15:48.927Z,0.40
2018-12-09T03:16:51.368Z,0.47
2018-12-09T03:17:53.814Z,0.47
2018-12-09T03:18:56.272Z,0.40
2018-12-09T03:19:58.719Z,0.40
2018-12-09T03:21:01.167Z,0.70
2018-12-09T03:22:03.865Z,0.40
2018-12-09T03:23:06.610Z,0.40
2018-12-09T03:24:09.659Z,0.40
2018-12-09T03:25:12.278Z,0.40
2018-12-09T03:26:14.720Z,0.40
2018-12-09T03:27:17.273Z,0.40
2018-12-09T03:28:19.715Z,0.50
2018-12-09T03:29:22.180Z,0.57
2018-12-09T03:30:24.826Z,0.40
2018-12-09T03:31:27.393Z,0.40
2018-12-09T03:32:29.848Z,0.40
2018-12-09T03:33:34.452Z,0.60
2018-12-09T03:34:36.779Z,0.50
2018-12-09T03:35:39.251Z,0.40
2018-12-09T03:36:41.687Z,0.50
2018-12-09T03:37:44.154Z,0.40
2018-12-09T03:38:46.590Z,0.60
2018-12-09T03:39:49.454Z,0.50
2018-12-09T03:40:51.994Z,0.50
2018-12-09T03:41:54.423Z,0.85
2018-12-09T03:42:56.867Z,0.42
2018-12-09T03:43:59.328Z,0.40
2018-12-09T03:45:01.785Z,0.50
2018-12-09T03:46:04.330Z,0.50
2018-12-09T03:47:06.772Z,0.40
2018-12-09T03:48:09.215Z,0.50
2018-12-09T03:49:11.695Z,0.62
2018-12-09T03:50:14.160Z,0.42
2018-12-09T03:51:16.606Z,0.50
2018-12-09T03:52:19.062Z,0.55
2018-12-09T03:53:21.558Z,0.50
2018-12-09T03:54:24.003Z,0.50
2018-12-09T03:55:26.985Z,0.50
2018-12-09T03:56:29.439Z,0.55
2018-12-09T03:57:31.885Z,0.80
2018-12-09T03:58:34.332Z,0.50
2018-12-09T03:59:36.802Z,0.50
2018-12-09T04:00:39.360Z,0.50
2018-12-09T04:01:41.900Z,0.40
2018-12-09T04:02:44.349Z,0.50
2018-12-09T04:03:46.807Z,0.50
2018-12-09T04:04:49.359Z,0.50
2018-12-09T04:05:51.807Z,0.40
2018-12-09T04:06:54.254Z,0.88
2018-12-09T04:07:56.696Z,0.50
2018-12-09T04:08:59.143Z,0.53
2018-12-09T04:10:02.011Z,0.57
2018-12-09T04:11:04.567Z,0.50
2018-12-09T04:12:07.016Z,0.57
2018-12-09T04:13:09.538Z,0.50
2018-12-09T04:14:11.981Z,0.40
2018-12-09T04:15:14.523Z,0.50
2018-12-09T04:16:16.976Z,0.50
2018-12-09T04:17:19.423Z,0.50
2018-12-09T04:18:21.880Z,0.45
2018-12-09T04:19:24.311Z,0.60
2018-12-09T04:20:26.758Z,0.70
2018-12-09T04:21:29.216Z,0.50
2018-12-09T04:22:31.679Z,0.60
2018-12-09T04:23:34.120Z,0.50
2018-12-09T04:24:36.577Z,0.45
2018-12-09T04:25:39.531Z,0.60
2018-12-09T04:26:41.993Z,0.50
2018-12-09T04:27:44.452Z,0.50
2018-12-09T04:28:46.993Z,0.50
2018-12-09T04:29:49.447Z,0.55
2018-12-09T04:30:51.877Z,0.50
2018-12-09T04:31:54.443Z,0.40
2018-12-09T04:32:56.883Z,0.40
2018-12-09T04:33:59.313Z,0.40
2018-12-09T04:35:01.773Z,0.50
2018-12-09T04:36:04.218Z,0.50
2018-12-09T04:37:06.667Z,0.50
2018-12-09T04:38:09.115Z,0.47
2018-12-09T04:39:11.561Z,0.40
2018-12-09T04:40:14.428Z,0.40
2018-12-09T04:41:17.325Z,0.70
2018-12-09T04:42:19.774Z,0.60
2018-12-09T04:43:22.323Z,0.50
2018-12-09T04:44:24.795Z,0.40
2018-12-09T04:45:27.324Z,0.50
2018-12-09T04:46:29.775Z,0.47
2018-12-09T04:47:32.235Z,0.42
2018-12-09T04:48:34.730Z,0.50
2018-12-09T04:49:37.188Z,0.40
2018-12-09T04:50:39.643Z,0.50
2018-12-09T04:51:53.101Z,0.75
2018-12-09T04:52:55.643Z,0.47
2018-12-09T04:53:58.192Z,0.50
2018-12-09T04:55:01.331Z,0.40
2018-12-09T04:56:03.907Z,0.40
2018-12-09T04:57:06.394Z,0.50
2018-12-09T04:58:08.842Z,1.47
2018-12-09T04:59:18.604Z,0.50
2018-12-09T05:00:33.100Z,0.50
2018-12-09T05:01:35.708Z,0.40
2018-12-09T05:02:38.215Z,0.50
2018-12-09T05:03:40.987Z,0.40
2018-12-09T05:04:43.458Z,0.40
2018-12-09T05:05:45.969Z,0.40
2018-12-09T05:06:48.450Z,0.50
2018-12-09T05:07:50.913Z,0.50
2018-12-09T05:08:53.377Z,0.47
2018-12-09T05:09:55.971Z,0.60
2018-12-09T05:10:58.500Z,0.60
2018-12-09T05:12:00.956Z,0.40
2018-12-09T05:13:03.415Z,0.53
2018-12-09T05:14:05.941Z,0.50
2018-12-09T05:15:08.563Z,0.50
2018-12-09T05:16:11.112Z,0.62
2018-12-09T05:17:13.542Z,0.70
2018-12-09T05:18:16.342Z,0.57
2018-12-09T05:19:19.366Z,0.68
2018-12-09T05:20:22.163Z,0.60
2018-12-09T05:21:24.644Z,0.78
2018-12-09T05:22:27.091Z,0.68
2018-12-09T05:23:29.588Z,0.50
2018-12-09T05:24:32.076Z,0.50
2018-12-09T05:25:34.532Z,0.60
2018-12-09T05:26:36.997Z,0.60
2018-12-09T05:27:39.569Z,0.55
2018-12-09T05:28:42.079Z,0.53
2018-12-09T05:29:44.533Z,0.60
2018-12-09T05:30:46.983Z,0.50
2018-12-09T05:31:49.439Z,0.55
2018-12-09T05:32:51.912Z,0.70
2018-12-09T05:33:55.119Z,0.68
2018-12-09T05:34:57.598Z,0.60
2018-12-09T05:36:00.064Z,0.50
2018-12-09T05:37:02.551Z,0.60
2018-12-09T05:38:05.004Z,0.57
2018-12-09T05:39:07.535Z,0.53
2018-12-09T05:40:11.919Z,0.42
2018-12-09T05:41:14.579Z,0.50
2018-12-09T05:42:17.073Z,0.50
2018-12-09T05:43:19.545Z,0.55
2018-12-09T05:44:21.991Z,0.50
2018-12-09T05:45:24.452Z,0.50
2018-12-09T05:46:27.005Z,0.50
2018-12-09T05:47:29.499Z,0.50
2018-12-09T05:48:32.255Z,0.50
2018-12-09T05:49:35.024Z,0.60
2018-12-09T05:50:37.517Z,0.50
2018-12-09T05:51:40.019Z,0.57
2018-12-09T05:52:42.509Z,0.82
2018-12-09T05:53:44.950Z,0.60
2018-12-09T05:54:47.413Z,0.50
2018-12-09T05:55:49.900Z,0.72
2018-12-09T05:56:52.391Z,0.75
2018-12-09T05:57:54.971Z,1.22
2018-12-09T05:58:58.052Z,1.67
2018-12-09T06:00:00.983Z,0.65
2018-12-09T06:01:03.452Z,0.90
2018-12-09T06:02:17.888Z,0.90
2018-12-09T06:03:21.203Z,1.15
2018-12-09T06:04:23.647Z,0.65
2018-12-09T06:05:26.107Z,0.90
2018-12-09T06:06:28.583Z,0.70
2018-12-09T06:07:31.454Z,0.80
2018-12-09T06:08:33.929Z,0.50
2018-12-09T06:09:36.363Z,1.00
2018-12-09T06:10:38.803Z,0.70
2018-12-09T06:11:41.261Z,0.70
2018-12-09T06:12:43.744Z,0.68
2018-12-09T06:13:46.735Z,0.70
2018-12-09T06:14:49.173Z,1.22
2018-12-09T06:15:51.636Z,0.70
2018-12-09T06:16:54.478Z,0.70
2018-12-09T06:17:56.992Z,0.45
2018-12-09T06:18:59.460Z,0.50
2018-12-09T06:20:01.907Z,0.62
2018-12-09T06:21:04.383Z,0.40
2018-12-09T06:22:07.698Z,0.80
2018-12-09T06:23:10.163Z,0.60
2018-12-09T06:24:12.642Z,0.65
2018-12-09T06:25:15.474Z,0.50
2018-12-09T06:26:17.907Z,0.50
2018-12-09T06:27:20.911Z,0.40
2018-12-09T06:28:23.722Z,0.40
2018-12-09T06:29:26.187Z,0.50
2018-12-09T06:30:28.759Z,0.62
2018-12-09T06:31:31.219Z,0.50
2018-12-09T06:32:33.719Z,0.60
2018-12-09T06:33:36.183Z,0.50
2018-12-09T06:34:38.645Z,0.60
2018-12-09T06:35:41.095Z,0.50
2018-12-09T06:36:43.539Z,0.50
2018-12-09T06:37:46.514Z,0.80
2018-12-09T06:38:48.952Z,0.50
2018-12-09T06:39:51.389Z,0.75
2018-12-09T06:40:53.840Z,0.50
2018-12-09T06:41:56.319Z,0.85
2018-12-09T06:42:58.771Z,0.60
2018-12-09T06:44:01.408Z,0.47
2018-12-09T06:45:04.179Z,0.40
2018-12-09T06:46:06.647Z,0.50
2018-12-09T06:47:09.078Z,0.50
2018-12-09T06:48:11.531Z,0.45
2018-12-09T06:49:14.028Z,0.40
2018-12-09T06:50:16.471Z,0.53
2018-12-09T06:51:18.918Z,0.50
2018-12-09T06:52:21.769Z,0.82
2018-12-09T06:53:24.246Z,0.57
2018-12-09T06:54:26.729Z,0.80
2018-12-09T06:55:29.162Z,0.70
2018-12-09T06:56:31.607Z,0.40
2018-12-09T06:57:34.060Z,0.50
2018-12-09T06:58:36.528Z,0.60
2018-12-09T06:59:38.991Z,0.65
2018-12-09T07:00:41.431Z,0.60
2018-12-09T07:01:43.960Z,0.57
2018-12-09T07:02:46.399Z,0.50
2018-12-09T07:03:48.863Z,0.50
2018-12-09T07:04:51.315Z,0.50
2018-12-09T07:05:54.187Z,0.55
2018-12-09T07:06:56.711Z,0.60
2018-12-09T07:07:59.231Z,0.50
2018-12-09T07:09:01.846Z,0.50
2018-12-09T07:10:06.187Z,0.60
2018-12-09T07:11:08.638Z,0.60
2018-12-09T07:12:11.074Z,0.60
2018-12-09T07:13:13.616Z,0.50
2018-12-09T07:14:16.073Z,0.60
2018-12-09T07:15:18.511Z,0.60
2018-12-09T07:16:20.960Z,0.70
2018-12-09T07:17:23.419Z,0.60
2018-12-09T07:18:25.853Z,0.70
2018-12-09T07:19:28.312Z,0.60
2018-12-09T07:20:31.128Z,0.70
2018-12-09T07:21:33.562Z,0.70
2018-12-09T07:22:36.012Z,0.70
2018-12-09T07:23:38.654Z,0.60
2018-12-09T07:24:41.122Z,0.70
2018-12-09T07:25:43.559Z,0.60
2018-12-09T07:26:45.993Z,0.50
2018-12-09T07:27:48.440Z,0.57
2018-12-09T07:28:51.015Z,0.70
2018-12-09T07:29:53.637Z,6.90
2018-12-09T07:30:56.074Z,6.87
2018-12-09T07:31:58.503Z,4.28
2018-12-09T07:33:00.949Z,2.55
2018-12-09T07:34:03.795Z,1.22
2018-12-09T07:35:07.238Z,0.80
2018-12-09T07:36:09.707Z,0.78
2018-12-09T07:37:12.141Z,0.75
2018-12-09T07:38:14.585Z,0.60
2018-12-09T07:39:17.056Z,0.70
2018-12-09T07:40:19.532Z,0.80
2018-12-09T07:41:21.983Z,0.85
2018-12-09T07:42:24.410Z,0.70
2018-12-09T07:43:26.883Z,0.80
2018-12-09T07:44:29.586Z,1.00
2018-12-09T07:45:32.043Z,0.70
2018-12-09T07:46:34.515Z,0.98
2018-12-09T07:47:36.956Z,0.75
2018-12-09T07:48:39.824Z,0.85
2018-12-09T07:49:42.305Z,0.88
2018-12-09T07:50:44.774Z,0.85
2018-12-09T07:51:47.248Z,0.80
2018-12-09T07:52:49.722Z,1.10
2018-12-09T07:53:52.212Z,1.10
2018-12-09T07:54:54.648Z,0.70
2018-12-09T07:55:57.107Z,0.72
2018-12-09T07:56:59.635Z,0.80
2018-12-09T07:58:02.062Z,1.37
2018-12-09T07:59:06.762Z,1.02
2018-12-09T08:00:09.183Z,1.07
2018-12-09T08:01:11.623Z,0.85
2018-12-09T08:02:14.055Z,0.95
2018-12-09T08:03:16.487Z,0.90
2018-12-09T08:04:18.912Z,0.82
2018-12-09T08:05:21.334Z,0.80
2018-12-09T08:06:23.879Z,0.93
2018-12-09T08:07:26.304Z,1.15
2018-12-09T08:08:28.743Z,0.90
2018-12-09T08:09:31.263Z,1.40
2018-12-09T08:10:33.693Z,0.88
2018-12-09T08:11:36.139Z,1.17
2018-12-09T08:12:38.575Z,1.32
2018-12-09T08:13:41.020Z,1.00
2018-12-09T08:14:43.467Z,1.90
2018-12-09T08:15:45.910Z,0.90
2018-12-09T08:16:48.354Z,0.95
2018-12-09T08:17:50.804Z,1.20
2018-12-09T08:18:53.239Z,0.80
2018-12-09T08:19:55.761Z,0.85
2018-12-09T08:20:58.198Z,0.85
2018-12-09T08:22:00.714Z,0.80
2018-12-09T08:23:03.225Z,0.90
2018-12-09T08:24:05.650Z,1.15
2018-12-09T08:25:08.176Z,1.15
2018-12-09T08:26:10.710Z,0.90
2018-12-09T08:27:13.273Z,0.80
2018-12-09T08:28:15.732Z,0.90
2018-12-09T08:29:18.173Z,0.98
2018-12-09T08:30:20.625Z,1.30
2018-12-09T08:31:23.067Z,0.80
2018-12-09T08:32:25.507Z,0.82
2018-12-09T08:33:28.035Z,1.32
2018-12-09T08:34:30.462Z,1.20
2018-12-09T08:35:32.911Z,1.17
2018-12-09T08:36:35.346Z,1.12
2018-12-09T08:37:37.812Z,1.17
2018-12-09T08:38:40.265Z,0.80
2018-12-09T08:39:42.706Z,1.52
2018-12-09T08:40:45.200Z,0.95
2018-12-09T08:41:47.663Z,2.22
2018-12-09T08:42:50.132Z,0.95
2018-12-09T08:43:52.575Z,0.95
2018-12-09T08:44:55.003Z,1.27
2018-12-09T08:45:57.440Z,0.68
2018-12-09T08:46:59.972Z,0.98
2018-12-09T08:48:02.443Z,1.10
2018-12-09T08:49:04.898Z,1.12
2018-12-09T08:50:07.338Z,0.90
2018-12-09T08:51:10.290Z,0.90
2018-12-09T08:52:13.053Z,1.10
2018-12-09T08:53:15.504Z,1.00
2018-12-09T08:54:18.045Z,0.88
2018-12-09T08:55:20.665Z,1.02
2018-12-09T08:56:23.134Z,1.10
2018-12-09T08:57:25.610Z,0.80
2018-12-09T08:58:28.058Z,0.70
2018-12-09T08:59:30.767Z,1.02
2018-12-09T09:00:33.241Z,1.00
2018-12-09T09:01:36.419Z,0.98
2018-12-09T09:02:38.858Z,0.80
2018-12-09T09:03:41.502Z,0.88
2018-12-09T09:04:43.946Z,0.90
2018-12-09T09:05:46.396Z,1.42
2018-12-09T09:06:48.831Z,1.17
2018-12-09T09:07:51.257Z,1.32
2018-12-09T09:08:53.701Z,1.32
2018-12-09T09:09:56.151Z,0.80
2018-12-09T09:10:58.595Z,1.20
2018-12-09T09:12:01.055Z,1.40
2018-12-09T09:13:03.546Z,1.10
2018-12-09T09:14:06.011Z,1.22
2018-12-09T09:15:08.467Z,0.90
2018-12-09T09:16:10.925Z,1.15
2018-12-09T09:17:13.384Z,1.40
2018-12-09T09:18:15.950Z,0.88
2018-12-09T09:19:18.497Z,1.37
2018-12-09T09:20:21.011Z,1.00
2018-12-09T09:21:23.660Z,1.10
2018-12-09T09:22:26.093Z,1.60
2018-12-09T09:23:29.379Z,1.30
2018-12-09T09:24:31.831Z,1.30
2018-12-09T09:25:34.291Z,1.10
2018-12-09T09:26:36.741Z,1.15
2018-12-09T09:27:39.228Z,1.20
2018-12-09T09:28:42.973Z,1.37
2018-12-09T09:29:45.704Z,0.90
2018-12-09T09:30:48.160Z,1.42
2018-12-09T09:31:50.636Z,2.52
2018-12-09T09:32:53.086Z,1.72
2018-12-09T09:33:55.542Z,1.70
2018-12-09T09:34:57.986Z,1.32
2018-12-09T09:36:00.456Z,3.05
2018-12-09T09:37:02.921Z,1.20
2018-12-09T09:38:05.417Z,1.35
2018-12-09T09:39:07.929Z,1.32
2018-12-09T09:40:10.397Z,1.77
2018-12-09T09:41:12.936Z,1.22
2018-12-09T09:42:15.436Z,1.52
2018-12-09T09:43:17.876Z,3.02
2018-12-09T09:44:20.628Z,1.20
2018-12-09T09:45:23.114Z,1.40
2018-12-09T09:46:25.593Z,1.32
2018-12-09T09:47:28.027Z,1.62
2018-12-09T09:48:30.463Z,1.47
2018-12-09T09:49:33.034Z,1.40
2018-12-09T09:50:35.484Z,1.55
2018-12-09T09:51:37.981Z,1.75
2018-12-09T09:52:40.431Z,1.47
2018-12-09T09:53:42.884Z,1.25
2018-12-09T09:54:45.318Z,1.25
2018-12-09T09:55:47.792Z,1.57
2018-12-09T09:56:50.257Z,1.45
2018-12-09T09:57:52.828Z,2.10
2018-12-09T09:58:55.302Z,1.32
2018-12-09T09:59:57.771Z,1.20
2018-12-09T10:01:00.239Z,1.50
2018-12-09T10:02:03.256Z,1.25
2018-12-09T10:03:05.780Z,1.15
2018-12-09T10:04:08.235Z,2.02
2018-12-09T10:05:10.779Z,1.32
2018-12-09T10:06:13.238Z,1.27
2018-12-09T10:07:15.701Z,1.52
2018-12-09T10:08:18.148Z,1.90
2018-12-09T10:09:20.571Z,1.10
2018-12-09T10:10:23.019Z,1.80
2018-12-09T10:11:25.471Z,2.20
2018-12-09T10:12:27.939Z,1.30
2018-12-09T10:13:30.381Z,1.40
2018-12-09T10:14:32.824Z,2.02
2018-12-09T10:15:35.257Z,1.62
2018-12-09T10:16:37.720Z,2.00
2018-12-09T10:17:40.167Z,1.82
2018-12-09T10:18:42.639Z,1.30
2018-12-09T10:19:45.123Z,1.70
2018-12-09T10:20:47.586Z,1.77
2018-12-09T10:21:50.048Z,1.77
2018-12-09T10:22:52.563Z,1.27
2018-12-09T10:23:54.997Z,1.85
2018-12-09T10:24:57.431Z,1.90
2018-12-09T10:25:59.863Z,1.50
2018-12-09T10:27:02.324Z,1.30
2018-12-09T10:28:04.766Z,1.42
2018-12-09T10:29:07.212Z,1.72
2018-12-09T10:30:09.696Z,1.95
2018-12-09T10:31:12.128Z,1.37
2018-12-09T10:32:14.599Z,1.37
2018-12-09T10:33:17.124Z,1.30
2018-12-09T10:34:19.566Z,1.45
2018-12-09T10:35:22.140Z,1.75
2018-12-09T10:36:24.571Z,1.87
2018-12-09T10:37:27.019Z,1.37
2018-12-09T10:38:29.463Z,1.37
2018-12-09T10:39:31.895Z,1.47
2018-12-09T10:40:34.360Z,1.90
2018-12-09T10:41:36.934Z,1.50
2018-12-09T10:42:39.379Z,1.47
2018-12-09T10:43:41.822Z,1.20
2018-12-09T10:44:44.250Z,1.22
2018-12-09T10:45:46.675Z,1.12
2018-12-09T10:46:49.132Z,1.40
2018-12-09T10:47:51.578Z,1.30
2018-12-09T10:48:54.046Z,1.10
2018-12-09T10:49:56.498Z,1.22
2018-12-09T10:50:58.924Z,1.20
2018-12-09T10:52:01.395Z,1.00
2018-12-09T10:53:03.882Z,1.37
2018-12-09T10:54:06.407Z,1.40
2018-12-09T10:55:08.873Z,3.20
2018-12-09T10:56:11.651Z,2.85
2018-12-09T10:57:14.089Z,1.30
2018-12-09T10:58:16.555Z,1.42
2018-12-09T10:59:19.022Z,1.45
2018-12-09T11:01:56.936Z,1.35
2018-12-09T11:02:59.482Z,1.70
2018-12-09T11:04:02.226Z,1.30
2018-12-09T11:05:05.255Z,1.50
2018-12-09T11:06:07.697Z,1.17
2018-12-09T11:07:10.128Z,1.27
2018-12-09T11:08:12.619Z,1.07
2018-12-09T11:09:15.100Z,1.65
2018-12-09T11:10:17.539Z,1.27
2018-12-09T11:11:20.002Z,1.07
2018-12-09T11:12:22.649Z,1.20
2018-12-09T11:13:25.122Z,1.30
2018-12-09T11:14:27.575Z,1.20
2018-12-09T11:15:30.064Z,0.78
2018-12-09T11:16:32.505Z,1.30
2018-12-09T11:17:34.951Z,1.20
2018-12-09T11:18:37.390Z,0.90
2018-12-09T11:19:39.846Z,1.05
2018-12-09T11:20:42.311Z,1.25
2018-12-09T11:21:44.761Z,1.22
2018-12-09T11:22:47.203Z,1.32
2018-12-09T11:23:49.636Z,1.27
2018-12-09T11:24:52.118Z,1.17
2018-12-09T11:25:54.578Z,1.50
2018-12-09T11:26:57.043Z,1.47
2018-12-09T11:27:59.480Z,1.90
2018-12-09T11:29:01.929Z,1.52
2018-12-09T11:30:05.756Z,2.35
2018-12-09T11:31:08.209Z,1.57
2018-12-09T11:32:10.652Z,1.70
2018-12-09T11:33:13.555Z,1.60
2018-12-09T11:34:15.992Z,1.35
2018-12-09T11:35:18.441Z,2.37
2018-12-09T11:36:20.902Z,1.35
2018-12-09T11:37:23.346Z,1.20
2018-12-09T11:38:25.779Z,1.47
2018-12-09T11:39:28.247Z,1.20
2018-12-09T11:40:30.695Z,1.95
2018-12-09T11:41:33.167Z,1.35
2018-12-09T11:42:35.744Z,1.87
2018-12-09T11:43:38.209Z,1.55
2018-12-09T11:44:42.331Z,1.60
2018-12-09T11:45:44.784Z,1.92
2018-12-09T11:46:47.209Z,1.40
2018-12-09T11:47:49.733Z,1.60
2018-12-09T11:48:52.181Z,1.27
2018-12-09T11:49:54.697Z,1.55
2018-12-09T11:50:57.172Z,1.67
2018-12-09T11:51:59.620Z,1.67
2018-12-09T11:53:02.076Z,1.40
2018-12-09T11:54:04.526Z,4.60
2018-12-09T11:55:07.065Z,3.05
2018-12-09T11:56:09.531Z,2.10
2018-12-09T11:57:12.359Z,2.27
2018-12-09T11:58:14.804Z,1.50
2018-12-09T11:59:17.255Z,2.15
2018-12-09T12:00:19.689Z,1.92
2018-12-09T12:01:22.187Z,2.10
2018-12-09T12:02:24.949Z,1.40
2018-12-09T12:03:27.388Z,3.58
2018-12-09T12:04:29.861Z,1.82
2018-12-09T12:05:32.301Z,1.77
2018-12-09T12:06:34.750Z,2.30
2018-12-09T12:07:37.311Z,1.92
2018-12-09T12:08:39.793Z,1.52
2018-12-09T12:09:42.225Z,1.98
2018-12-09T12:10:44.668Z,1.62
2018-12-09T12:11:47.115Z,1.92
2018-12-09T12:12:49.579Z,2.00
2018-12-09T12:13:52.009Z,1.75
2018-12-09T12:14:54.449Z,2.12
2018-12-09T12:15:56.885Z,1.90
2018-12-09T12:16:59.394Z,2.02
2018-12-09T12:18:01.969Z,1.70
2018-12-09T12:19:04.483Z,1.80
2018-12-09T12:20:08.517Z,2.30
2018-12-09T12:21:10.948Z,1.90
2018-12-09T12:22:13.407Z,2.10
2018-12-09T12:23:16.111Z,2.50
2018-12-09T12:24:18.544Z,1.75
2018-12-09T12:25:20.989Z,1.90
2018-12-09T12:26:23.678Z,1.67
2018-12-09T12:27:26.248Z,2.02
2018-12-09T12:28:28.772Z,2.25
2018-12-09T12:29:31.196Z,1.60
2018-12-09T12:30:33.690Z,2.70
2018-12-09T12:31:36.177Z,1.95
2018-12-09T12:32:39.420Z,1.85
2018-12-09T12:33:41.975Z,2.52
2018-12-09T12:34:44.476Z,1.47
2018-12-09T12:35:46.910Z,2.50
2018-12-09T12:36:49.626Z,1.80
2018-12-09T12:37:52.110Z,2.37
2018-12-09T12:38:54.659Z,1.80
2018-12-09T12:39:57.212Z,1.80
2018-12-09T12:40:59.684Z,3.00
2018-12-09T12:42:02.785Z,2.27
2018-12-09T12:43:05.294Z,2.50
2018-12-09T12:44:07.923Z,1.90
2018-12-09T12:45:10.441Z,1.70
2018-12-09T12:46:12.886Z,1.45
2018-12-09T12:47:15.342Z,1.90
2018-12-09T12:48:17.819Z,1.92
2018-12-09T12:49:20.345Z,2.77
2018-12-09T12:50:22.776Z,2.30
2018-12-09T12:51:25.556Z,2.02
2018-12-09T12:52:28.159Z,1.87
2018-12-09T12:53:30.698Z,2.37
2018-12-09T12:54:33.181Z,2.27
2018-12-09T12:55:35.630Z,1.62
2018-12-09T12:56:38.100Z,2.20
2018-12-09T12:57:40.556Z,2.10
2018-12-09T12:58:43.006Z,1.92
2018-12-09T12:59:45.452Z,1.90
2018-12-09T13:00:47.876Z,2.33
2018-12-09T13:01:50.312Z,2.62
2018-12-09T13:02:52.766Z,2.33
2018-12-09T13:03:55.227Z,7.42
2018-12-09T13:04:57.655Z,2.25
2018-12-09T13:06:00.200Z,3.42
2018-12-09T13:07:02.623Z,2.55
2018-12-09T13:08:05.069Z,2.05
2018-12-09T13:09:07.553Z,2.58
2018-12-09T13:10:10.034Z,2.90
2018-12-09T13:11:12.474Z,2.10
2018-12-09T13:12:15.252Z,2.92
2018-12-09T13:13:17.895Z,2.20
2018-12-09T13:14:20.470Z,2.58
2018-12-09T13:15:22.909Z,3.05
2018-12-09T13:16:25.340Z,3.00
2018-12-09T13:17:27.855Z,2.75
2018-12-09T13:18:30.338Z,2.83
2018-12-09T13:19:32.832Z,2.50
2018-12-09T13:20:35.376Z,2.65
2018-12-09T13:21:37.823Z,2.58
2018-12-09T13:22:41.223Z,2.75
2018-12-09T13:23:43.845Z,2.65
2018-12-09T13:24:46.307Z,2.90
2018-12-09T13:25:49.525Z,2.72
2018-12-09T13:26:52.001Z,3.00
2018-12-09T13:27:54.725Z,2.90
2018-12-09T13:28:57.319Z,4.17
2018-12-09T13:29:59.884Z,3.35
2018-12-09T13:31:02.532Z,2.62
2018-12-09T13:32:05.018Z,2.35
2018-12-09T13:33:07.544Z,2.10
2018-12-09T13:34:10.130Z,2.30
2018-12-09T13:35:12.615Z,2.60
2018-12-09T13:36:15.870Z,1.98
2018-12-09T13:37:18.326Z,2.17
2018-12-09T13:38:20.769Z,2.60
2018-12-09T13:39:23.243Z,1.90
2018-12-09T13:40:26.578Z,2.50
2018-12-09T13:41:29.078Z,1.70
2018-12-09T13:42:31.580Z,2.00
2018-12-09T13:43:34.071Z,1.95
2018-12-09T13:44:36.503Z,2.30
2018-12-09T13:45:38.976Z,1.62
2018-12-09T13:46:41.475Z,2.60
2018-12-09T13:47:43.900Z,2.33
2018-12-09T13:48:46.562Z,2.52
2018-12-09T13:49:49.001Z,2.33
2018-12-09T13:50:51.552Z,2.00
2018-12-09T13:51:54.288Z,1.87
2018-12-09T13:52:56.738Z,1.77
2018-12-09T13:53:59.213Z,1.92
2018-12-09T13:55:01.662Z,2.42